Time;durP1;ratioP1;P1;durP2;ratioP2;P2;SDS_P1;SDS_P2;PMS_P1;PMS_P2;Temp;Humidity;BMP_temperature;BMP_pressure;BME280_temperature;BME280_humidity;BME280_pressure;Samples;Min_cycle;Max_cycle;Signal;HPM_P1;HPM_P2
2021/11/13 00:00:04;;;;;;;51.63;36.63;;;4.00;99.90;;;;;;5047570;28;20477;-91
2021/11/13 00:02:31;;;;;;;51.27;35.90;;;4.00;99.90;;;;;;5043038;28;20484;-91
2021/11/13 00:04:58;;;;;;;55.70;35.40;;;4.00;99.90;;;;;;5042938;28;20461;-91
2021/11/13 00:07:26;;;;;;;50.80;35.73;;;3.90;99.90;;;;;;5043664;28;20489;-91
2021/11/13 00:09:53;;;;;;;50.60;36.83;;;4.00;99.90;;;;;;5043171;28;20466;-92
2021/11/13 00:12:20;;;;;;;50.83;35.43;;;3.90;99.90;;;;;;5044134;28;20533;-90
2021/11/13 00:14:47;;;;;;;52.37;36.47;;;3.90;99.90;;;;;;5048351;28;20445;-91
2021/11/13 00:17:15;;;;;;;55.60;37.80;;;3.90;99.90;;;;;;5049282;28;20498;-90
2021/11/13 00:19:43;;;;;;;57.03;37.60;;;4.00;99.90;;;;;;5043425;28;20459;-91
2021/11/13 00:22:09;;;;;;;56.87;38.50;;;4.00;99.90;;;;;;5050794;28;20455;-89
2021/11/13 00:24:38;;;;;;;52.17;36.03;;;4.00;99.90;;;;;;5044124;28;20442;-91
2021/11/13 00:27:08;;;;;;;50.93;35.23;;;4.00;99.90;;;;;;5049093;28;20449;-90
2021/11/13 00:29:35;;;;;;;49.80;37.43;;;4.00;99.90;;;;;;5052016;28;20468;-91
2021/11/13 00:32:04;;;;;;;56.50;38.87;;;4.00;99.90;;;;;;5032909;28;20442;-91
2021/11/13 00:34:31;;;;;;;57.57;39.93;;;4.00;99.90;;;;;;5049971;28;20498;-91
2021/11/13 00:36:58;;;;;;;54.07;37.73;;;4.00;99.90;;;;;;5049355;28;20443;-92
2021/11/13 00:39:25;;;;;;;48.13;35.13;;;4.00;99.90;;;;;;5037971;28;20829;-92
2021/11/13 00:41:55;;;;;;;50.87;36.37;;;4.10;99.90;;;;;;5032926;28;20494;-91
2021/11/13 00:44:21;;;;;;;42.97;34.63;;;4.10;99.90;;;;;;5032339;28;20444;-92
2021/11/13 00:46:48;;;;;;;44.27;33.67;;;4.10;99.90;;;;;;5033590;28;20449;-92
2021/11/13 00:49:17;;;;;;;45.70;33.23;;;4.10;99.90;;;;;;5033680;28;20468;-92
2021/11/13 00:51:45;;;;;;;45.93;33.67;;;4.20;99.90;;;;;;5034161;28;20443;-91
2021/11/13 00:54:13;;;;;;;41.03;31.17;;;4.20;99.90;;;;;;5037972;28;20499;-91
2021/11/13 00:56:40;;;;;;;33.53;29.30;;;4.10;99.90;;;;;;5033702;28;20448;-92
2021/11/13 00:59:08;;;;;;;32.03;28.63;;;4.10;99.90;;;;;;5036615;28;20465;-92
2021/11/13 01:01:35;;;;;;;31.73;27.77;;;4.10;99.90;;;;;;5044159;28;20483;-92
2021/11/13 01:04:02;;;;;;;31.80;27.53;;;4.10;99.90;;;;;;5037407;28;20459;-91
2021/11/13 01:06:29;;;;;;;32.90;26.00;;;4.00;99.90;;;;;;5040839;28;20448;-92
2021/11/13 01:08:56;;;;;;;33.80;27.50;;;4.00;99.90;;;;;;5047189;28;21077;-92
2021/11/13 01:11:25;;;;;;;34.47;27.63;;;4.00;99.90;;;;;;5041862;28;20451;-92
2021/11/13 01:13:52;;;;;;;33.00;27.33;;;4.00;99.90;;;;;;5041015;28;20452;-92
2021/11/13 01:16:21;;;;;;;38.20;29.00;;;3.90;99.90;;;;;;5045562;28;20481;-92
2021/11/13 01:18:49;;;;;;;37.57;30.20;;;4.00;99.90;;;;;;5031360;28;20976;-92
2021/11/13 01:21:16;;;;;;;34.30;28.03;;;4.00;99.90;;;;;;5033382;28;20518;-91
2021/11/13 01:23:42;;;;;;;39.83;31.50;;;4.00;99.90;;;;;;5049842;28;20413;-90
2021/11/13 01:26:10;;;;;;;39.37;31.60;;;4.00;99.90;;;;;;5057551;28;20514;-90
2021/11/13 01:28:37;;;;;;;39.47;30.73;;;4.00;99.90;;;;;;5047658;28;20514;-90
2021/11/13 01:31:06;;;;;;;35.10;29.00;;;4.10;99.90;;;;;;5041077;28;20445;-91
2021/11/13 01:33:35;;;;;;;34.27;29.00;;;4.10;99.90;;;;;;5034280;28;20885;-92
2021/11/13 01:36:02;;;;;;;42.80;30.80;;;4.20;99.90;;;;;;5022929;28;20488;-91
2021/11/13 01:38:29;;;;;;;41.77;31.13;;;4.20;99.90;;;;;;5039373;28;20524;-90
2021/11/13 01:40:56;;;;;;;39.07;32.23;;;4.20;99.90;;;;;;5052965;28;20463;-91
2021/11/13 01:43:25;;;;;;;36.40;31.13;;;4.20;99.90;;;;;;5040446;28;20504;-91
2021/11/13 01:45:52;;;;;;;38.00;30.60;;;4.20;99.90;;;;;;5042736;28;20466;-91
2021/11/13 01:48:19;;;;;;;43.87;32.77;;;4.30;99.90;;;;;;5037206;28;20429;-91
2021/11/13 01:50:48;;;;;;;43.40;31.13;;;4.30;99.90;;;;;;5041687;28;20436;-91
2021/11/13 01:53:14;;;;;;;39.97;33.53;;;4.30;99.90;;;;;;5043257;28;20424;-90
2021/11/13 01:55:42;;;;;;;39.50;32.20;;;4.40;99.90;;;;;;5051369;28;20443;-90
2021/11/13 01:58:12;;;;;;;41.90;31.50;;;4.40;99.90;;;;;;5058073;28;20455;-91
2021/11/13 02:00:43;;;;;;;40.87;32.10;;;4.40;99.90;;;;;;5060283;28;20534;-91
2021/11/13 02:03:11;;;;;;;43.23;31.47;;;4.40;99.90;;;;;;5061071;28;20444;-91
2021/11/13 02:05:38;;;;;;;42.70;31.40;;;4.40;99.90;;;;;;5054014;28;20466;-91
2021/11/13 02:08:07;;;;;;;41.33;32.60;;;4.40;99.90;;;;;;5046829;28;20421;-91
2021/11/13 02:10:36;;;;;;;39.67;29.30;;;4.40;99.90;;;;;;5035340;28;20451;-91
2021/11/13 02:13:03;;;;;;;48.63;31.27;;;4.40;99.90;;;;;;5035713;28;20456;-91
2021/11/13 02:15:30;;;;;;;49.00;31.23;;;4.40;99.90;;;;;;5036613;28;20827;-92
2021/11/13 02:18:00;;;;;;;45.20;31.40;;;4.40;99.90;;;;;;5037388;28;20965;-91
2021/11/13 02:20:31;;;;;;;72.60;36.00;;;4.40;99.90;;;;;;5041316;28;20476;-91
2021/11/13 02:23:00;;;;;;;44.93;32.13;;;4.30;99.90;;;;;;5036858;28;20909;-91
2021/11/13 02:25:29;;;;;;;57.80;34.13;;;4.30;99.90;;;;;;5035440;28;20960;-91
2021/11/13 02:27:57;;;;;;;50.40;33.00;;;4.30;99.90;;;;;;5035037;28;20797;-91
2021/11/13 02:30:24;;;;;;;46.77;35.73;;;4.30;99.90;;;;;;5034813;28;20476;-91
2021/11/13 02:32:53;;;;;;;50.50;34.53;;;4.30;99.90;;;;;;5035270;28;20456;-91
2021/11/13 02:35:20;;;;;;;46.23;33.57;;;4.30;99.90;;;;;;5035169;28;20451;-91
2021/11/13 02:37:49;;;;;;;44.53;32.80;;;4.40;99.90;;;;;;5035338;28;20808;-91
2021/11/13 02:40:17;;;;;;;42.17;30.20;;;4.30;99.90;;;;;;5035973;28;20468;-92
2021/11/13 02:42:45;;;;;;;45.40;33.53;;;4.30;99.90;;;;;;5036548;28;20485;-91
2021/11/13 02:45:13;;;;;;;48.23;32.37;;;4.30;99.90;;;;;;5035006;28;20448;-91
2021/11/13 02:47:43;;;;;;;42.43;29.97;;;4.30;99.90;;;;;;5034968;28;20433;-91
2021/11/13 02:50:11;;;;;;;46.40;32.53;;;4.30;99.90;;;;;;5034675;28;20456;-91
2021/11/13 02:52:43;;;;;;;42.73;29.57;;;4.40;99.90;;;;;;5035250;28;20441;-91
2021/11/13 02:55:11;;;;;;;43.70;32.53;;;4.40;99.90;;;;;;5033986;28;20435;-91
2021/11/13 02:57:39;;;;;;;41.13;30.67;;;4.40;99.90;;;;;;5047149;28;20444;-91
2021/11/13 03:00:08;;;;;;;41.70;32.73;;;4.40;99.90;;;;;;5058894;28;20473;-91
2021/11/13 03:02:35;;;;;;;37.90;30.10;;;4.30;99.90;;;;;;5039219;28;20478;-91
2021/11/13 03:05:02;;;;;;;56.30;31.53;;;4.30;99.90;;;;;;5032426;28;20441;-91
2021/11/13 03:07:29;;;;;;;52.43;30.93;;;4.30;99.90;;;;;;5040835;28;21056;-91
2021/11/13 03:09:56;;;;;;;43.80;33.10;;;4.20;99.90;;;;;;5054443;28;20480;-91
2021/11/13 03:12:24;;;;;;;53.10;31.27;;;4.20;99.90;;;;;;5048642;28;20828;-91
2021/11/13 03:14:50;;;;;;;45.27;31.33;;;4.20;99.90;;;;;;5033490;28;20445;-91
2021/11/13 03:17:17;;;;;;;43.33;31.37;;;4.20;99.90;;;;;;5033512;28;20448;-91
2021/11/13 03:19:44;;;;;;;44.10;31.03;;;4.10;99.90;;;;;;5033711;28;20468;-91
2021/11/13 03:22:12;;;;;;;43.87;29.67;;;4.10;99.90;;;;;;5034114;28;20484;-92
2021/11/13 03:24:40;;;;;;;40.07;31.90;;;4.10;99.90;;;;;;5033995;28;20456;-91
2021/11/13 03:27:07;;;;;;;47.20;33.70;;;4.10;99.90;;;;;;5048604;28;20436;-92
2021/11/13 03:29:36;;;;;;;43.43;30.43;;;4.10;99.90;;;;;;5043822;28;20471;-92
2021/11/13 03:32:04;;;;;;;43.73;30.70;;;4.10;99.90;;;;;;5036422;28;20429;-91
2021/11/13 03:34:33;;;;;;;56.23;34.50;;;4.10;99.90;;;;;;5035692;28;20449;-91
2021/11/13 03:37:00;;;;;;;54.83;34.23;;;4.10;99.90;;;;;;5052903;28;20425;-91
2021/11/13 03:39:27;;;;;;;50.57;32.37;;;4.10;99.90;;;;;;5056021;28;20470;-91
2021/11/13 03:41:53;;;;;;;48.97;33.03;;;4.10;99.90;;;;;;5045845;28;20857;-91
2021/11/13 03:44:20;;;;;;;54.10;34.27;;;4.00;99.90;;;;;;5036365;28;20452;-91
2021/11/13 03:46:48;;;;;;;49.60;34.07;;;4.10;99.90;;;;;;5037330;28;20448;-91
2021/11/13 03:49:16;;;;;;;52.80;33.43;;;4.00;99.90;;;;;;5034520;28;20484;-92
2021/11/13 03:51:42;;;;;;;55.33;33.17;;;4.00;99.90;;;;;;5033638;28;20448;-91
2021/11/13 03:54:09;;;;;;;50.47;32.77;;;3.90;99.90;;;;;;5033354;28;20455;-87
2021/11/13 03:56:36;;;;;;;47.00;34.27;;;3.90;99.90;;;;;;5032865;28;20975;-91
2021/11/13 03:59:05;;;;;;;51.97;33.90;;;3.90;99.90;;;;;;5035014;28;20476;-91
2021/11/13 04:01:32;;;;;;;47.57;33.07;;;3.90;99.90;;;;;;5035527;28;20505;-91
2021/11/13 04:04:01;;;;;;;40.67;30.63;;;3.80;99.90;;;;;;5035424;28;20462;-91
2021/11/13 04:06:27;;;;;;;39.47;29.77;;;3.80;99.90;;;;;;5037950;28;20443;-91
2021/11/13 04:08:55;;;;;;;40.67;29.90;;;3.70;99.90;;;;;;5052545;28;20462;-91
2021/11/13 04:11:22;;;;;;;44.17;33.10;;;3.70;99.90;;;;;;5044529;28;20792;-91
2021/11/13 04:13:49;;;;;;;43.43;31.77;;;3.70;99.90;;;;;;5034551;28;20455;-91
2021/11/13 04:16:15;;;;;;;38.70;29.10;;;3.80;99.90;;;;;;5035959;28;20445;-90
2021/11/13 04:18:42;;;;;;;53.25;34.85;;;3.70;99.90;;;;;;5033313;28;20231;-88
2021/11/13 04:21:10;;;;;;;47.13;32.60;;;3.70;99.90;;;;;;5034130;28;20314;-90
2021/11/13 04:23:37;;;;;;;34.53;27.03;;;3.80;99.90;;;;;;5034855;28;20458;-91
2021/11/13 04:26:04;;;;;;;35.50;27.30;;;3.80;99.90;;;;;;5046122;28;20447;-91
2021/11/13 04:28:31;;;;;;;36.60;29.23;;;3.70;99.90;;;;;;5042996;28;20836;-91
2021/11/13 04:30:58;;;;;;;48.27;31.50;;;3.70;99.90;;;;;;5044614;28;20428;-91
2021/11/13 04:33:26;;;;;;;41.57;31.50;;;3.80;99.90;;;;;;5056695;28;20503;-89
2021/11/13 04:36:02;;;;;;;45.37;32.03;;;3.80;99.90;;;;;;5054535;28;20436;-91
2021/11/13 04:38:32;;;;;;;39.60;29.30;;;3.80;99.90;;;;;;5033500;28;20561;-90
2021/11/13 04:41:03;;;;;;;39.97;31.37;;;3.80;99.90;;;;;;5037114;28;20462;-90
2021/11/13 04:43:30;;;;;;;39.27;29.73;;;3.80;99.90;;;;;;5042009;28;20458;-91
2021/11/13 04:45:57;;;;;;;44.90;31.80;;;3.80;99.90;;;;;;5033141;28;20445;-91
2021/11/13 04:48:24;;;;;;;40.15;31.25;;;3.80;99.90;;;;;;5033410;28;20438;-90
2021/11/13 04:50:51;;;;;;;37.60;28.97;;;3.80;99.90;;;;;;5035211;28;20192;-91
2021/11/13 04:53:21;;;;;;;34.40;27.33;;;3.80;99.90;;;;;;5036686;28;20948;-90
2021/11/13 04:55:49;;;;;;;34.70;27.93;;;3.80;99.90;;;;;;5037255;28;20283;-90
2021/11/13 04:58:17;;;;;;;31.33;25.47;;;3.70;99.90;;;;;;5043454;28;20464;-89
2021/11/13 05:00:43;;;;;;;32.70;26.80;;;3.70;99.90;;;;;;5049281;28;20443;-91
2021/11/13 05:03:12;;;;;;;33.90;28.13;;;3.70;99.90;;;;;;5046974;28;20474;-91
2021/11/13 05:05:39;;;;;;;27.95;23.70;;;3.60;99.90;;;;;;5044542;28;20483;-91
2021/11/13 05:08:07;;;;;;;28.80;25.10;;;3.60;99.90;;;;;;5048107;28;20190;-90
2021/11/13 05:10:34;;;;;;;27.65;24.63;;;3.60;99.90;;;;;;5047829;28;20419;-90
2021/11/13 05:13:02;;;;;;;30.17;24.27;;;3.70;99.90;;;;;;5041575;28;20189;-90
2021/11/13 05:15:30;;;;;;;29.57;23.80;;;3.70;99.90;;;;;;5040133;28;20434;-90
2021/11/13 05:17:57;;;;;;;26.52;22.88;;;3.70;99.90;;;;;;5056971;28;20502;-91
2021/11/13 05:20:24;;;;;;;28.30;24.90;;;3.60;99.90;;;;;;5057688;28;20257;-90
2021/11/13 05:22:51;;;;;;;27.63;24.00;;;3.60;99.90;;;;;;5047835;28;21003;-91
2021/11/13 05:25:20;;;;;;;27.10;23.47;;;3.70;99.90;;;;;;5036494;28;20208;-90
2021/11/13 05:27:47;;;;;;;29.10;24.93;;;3.70;99.90;;;;;;5035656;28;20438;-90
2021/11/13 05:30:17;;;;;;;28.53;25.37;;;3.70;99.90;;;;;;5036254;28;20462;-91
2021/11/13 05:32:44;;;;;;;30.43;25.57;;;3.70;99.90;;;;;;5038891;28;20442;-91
2021/11/13 05:35:12;;;;;;;31.53;24.90;;;3.70;99.90;;;;;;5061280;28;20435;-89
2021/11/13 05:37:39;;;;;;;31.43;26.30;;;3.70;99.90;;;;;;5049480;28;20816;-90
2021/11/13 05:40:08;;;;;;;32.17;24.93;;;3.70;99.90;;;;;;5040813;28;20466;-90
2021/11/13 05:42:35;;;;;;;30.57;24.77;;;3.70;99.90;;;;;;5060503;22;20627;-87
2021/11/13 05:45:02;;;;;;;32.37;25.63;;;3.70;99.90;;;;;;5055933;28;20457;-89
2021/11/13 05:47:30;;;;;;;29.67;25.47;;;3.70;99.90;;;;;;5061386;28;20442;-89
2021/11/13 05:49:57;;;;;;;27.37;24.50;;;3.80;99.90;;;;;;5062255;28;20455;-89
2021/11/13 05:52:24;;;;;;;27.37;23.20;;;3.80;99.90;;;;;;5063072;28;20467;-89
2021/11/13 05:54:51;;;;;;;26.97;24.10;;;3.80;99.90;;;;;;5069660;28;20446;-88
2021/11/13 05:57:18;;;;;;;28.20;24.07;;;3.80;99.90;;;;;;5070658;28;20442;-89
2021/11/13 05:59:45;;;;;;;27.10;24.20;;;3.80;99.90;;;;;;5067159;28;20411;-88
2021/11/13 06:02:12;;;;;;;26.43;22.93;;;3.80;99.90;;;;;;5069095;28;20486;-88
2021/11/13 06:04:40;;;;;;;29.83;24.30;;;3.80;99.90;;;;;;5073178;28;20430;-87
2021/11/13 06:07:07;;;;;;;29.37;23.47;;;3.80;99.90;;;;;;5074623;28;20443;-88
2021/11/13 06:09:34;;;;;;;25.00;22.40;;;3.80;99.90;;;;;;5068638;28;20453;-88
2021/11/13 06:12:00;;;;;;;23.67;21.20;;;3.80;99.90;;;;;;5071247;28;20465;-88
2021/11/13 06:14:27;;;;;;;22.97;20.37;;;3.80;99.90;;;;;;5071628;28;20446;-88
2021/11/13 06:16:54;;;;;;;26.77;23.73;;;3.80;99.90;;;;;;5070012;28;20443;-88
2021/11/13 06:19:21;;;;;;;24.63;21.83;;;3.80;99.90;;;;;;5068607;28;20196;-88
2021/11/13 06:21:49;;;;;;;23.93;21.40;;;3.80;99.90;;;;;;5075289;28;20523;-88
2021/11/13 06:24:15;;;;;;;23.00;20.60;;;3.80;99.90;;;;;;5072756;28;20442;-89
2021/11/13 06:26:42;;;;;;;21.13;17.50;;;3.80;99.90;;;;;;5073675;28;20441;-89
2021/11/13 06:29:09;;;;;;;22.63;20.23;;;3.80;99.90;;;;;;5071787;28;20428;-88
2021/11/13 06:31:36;;;;;;;22.37;19.97;;;3.80;99.90;;;;;;5061770;28;20465;-89
2021/11/13 06:34:03;;;;;;;21.77;19.47;;;3.80;99.90;;;;;;5060919;28;20438;-88
2021/11/13 06:36:30;;;;;;;24.50;21.83;;;3.80;99.90;;;;;;5058822;28;20440;-89
2021/11/13 06:38:58;;;;;;;23.50;19.50;;;3.80;99.90;;;;;;5056678;28;20441;-89
2021/11/13 06:41:29;;;;;;;25.27;22.27;;;3.90;99.90;;;;;;5054840;28;20467;-89
2021/11/13 06:43:56;;;;;;;24.10;21.27;;;3.90;99.90;;;;;;5055769;28;20233;-89
2021/11/13 06:46:23;;;;;;;23.20;20.80;;;3.90;99.90;;;;;;5054485;28;20443;-88
2021/11/13 06:48:50;;;;;;;22.87;20.27;;;3.90;99.90;;;;;;5055363;28;20434;-89
2021/11/13 06:51:17;;;;;;;30.47;20.17;;;3.90;99.90;;;;;;5055431;28;20473;-89
2021/11/13 06:53:44;;;;;;;24.47;20.93;;;3.80;99.90;;;;;;5054199;28;20456;-88
2021/11/13 06:56:12;;;;;;;24.13;21.53;;;3.90;99.90;;;;;;5054194;28;20460;-88
2021/11/13 06:58:39;;;;;;;23.47;20.20;;;3.90;99.90;;;;;;5055123;28;20437;-89
2021/11/13 07:01:06;;;;;;;22.37;20.03;;;3.90;99.90;;;;;;5055021;28;20451;-89
2021/11/13 07:03:33;;;;;;;23.93;20.53;;;3.90;99.90;;;;;;5068204;28;20487;-87
2021/11/13 07:06:00;;;;;;;24.27;19.90;;;3.80;99.90;;;;;;5076301;28;20439;-89
2021/11/13 07:08:27;;;;;;;22.70;20.30;;;3.80;99.90;;;;;;5055230;28;20453;-88
2021/11/13 07:10:54;;;;;;;22.67;19.60;;;3.80;99.90;;;;;;5060869;28;20449;-88
2021/11/13 07:13:23;;;;;;;25.93;19.43;;;3.80;99.90;;;;;;5063516;28;20444;-89
2021/11/13 07:15:50;;;;;;;21.80;19.10;;;3.90;99.90;;;;;;5054933;28;20807;-88
2021/11/13 07:18:17;;;;;;;22.60;18.80;;;3.90;99.90;;;;;;5051722;28;20451;-88
2021/11/13 07:20:51;;;;;;;23.03;20.73;;;3.90;99.90;;;;;;5063284;28;20455;-89
2021/11/13 07:23:18;;;;;;;22.90;19.53;;;3.90;99.90;;;;;;5059211;28;20993;-89
2021/11/13 07:25:45;;;;;;;19.00;17.13;;;3.90;99.90;;;;;;5055207;28;20442;-89
2021/11/13 07:28:14;;;;;;;23.03;20.57;;;3.90;99.90;;;;;;5054601;28;20447;-88
2021/11/13 07:30:45;;;;;;;23.73;21.43;;;3.90;99.90;;;;;;5058725;28;20479;-86
2021/11/13 07:33:13;;;;;;;22.70;20.30;;;3.90;99.90;;;;;;5069833;28;20497;-88
2021/11/13 07:35:43;;;;;;;22.47;20.03;;;3.90;99.90;;;;;;5063196;28;20453;-88
2021/11/13 07:38:10;;;;;;;24.80;22.37;;;4.00;99.90;;;;;;5053930;28;20437;-89
2021/11/13 07:40:38;;;;;;;22.33;19.97;;;4.00;99.90;;;;;;5054838;28;20450;-87
2021/11/13 07:43:05;;;;;;;21.93;19.60;;;4.00;99.90;;;;;;5053083;28;20477;-88
2021/11/13 07:45:32;;;;;;;19.90;17.80;;;4.00;99.90;;;;;;5053448;28;20439;-88
2021/11/13 07:48:00;;;;;;;23.60;20.47;;;4.10;99.90;;;;;;5055285;28;20451;-90
2021/11/13 07:50:27;;;;;;;27.97;23.13;;;4.10;99.90;;;;;;5057460;28;20430;-88
2021/11/13 07:52:54;;;;;;;21.97;18.67;;;4.20;99.90;;;;;;5055568;28;20808;-90
2021/11/13 07:55:21;;;;;;;23.37;20.87;;;4.30;99.90;;;;;;5055976;28;20450;-88
2021/11/13 07:57:47;;;;;;;22.50;20.10;;;4.40;99.90;;;;;;5070270;28;20430;-88
2021/11/13 08:00:18;;;;;;;24.17;19.60;;;4.40;99.90;;;;;;5062776;28;20786;-87
2021/11/13 08:02:45;;;;;;;23.57;18.67;;;4.50;99.90;;;;;;5074069;28;20488;-88
2021/11/13 08:05:15;;;;;;;22.37;20.10;;;4.60;99.90;;;;;;5058151;28;20431;-88
2021/11/13 08:07:43;;;;;;;21.33;19.13;;;4.70;99.90;;;;;;5067099;28;20974;-88
2021/11/13 08:10:11;;;;;;;22.53;20.20;;;4.80;99.90;;;;;;5064353;28;20440;-88
2021/11/13 08:12:38;;;;;;;23.23;20.73;;;4.90;99.90;;;;;;5058172;28;20477;-88
2021/11/13 08:15:07;;;;;;;27.60;19.97;;;5.10;99.90;;;;;;5062993;28;20451;-87
2021/11/13 08:17:34;;;;;;;20.83;18.73;;;5.20;99.90;;;;;;5058352;28;20451;-88
2021/11/13 08:20:01;;;;;;;21.93;19.77;;;5.40;99.90;;;;;;5057110;28;20534;-89
2021/11/13 08:22:29;;;;;;;20.17;18.07;;;5.50;99.90;;;;;;5061805;28;20476;-88
2021/11/13 08:24:56;;;;;;;22.27;19.90;;;5.70;99.90;;;;;;5072158;28;20444;-88
2021/11/13 08:27:23;;;;;;;19.97;17.83;;;5.80;99.90;;;;;;5058446;28;20451;-89
2021/11/13 08:29:50;;;;;;;19.53;17.70;;;5.90;99.90;;;;;;5067418;28;20428;-88
2021/11/13 08:32:17;;;;;;;21.10;18.80;;;6.20;99.90;;;;;;5065255;28;20482;-89
2021/11/13 08:34:44;;;;;;;20.90;18.33;;;6.50;99.90;;;;;;5058781;28;20448;-88
2021/11/13 08:37:11;;;;;;;18.80;17.00;;;6.70;99.90;;;;;;5058420;28;20477;-88
2021/11/13 08:39:39;;;;;;;19.70;17.70;;;6.60;99.90;;;;;;5059125;28;20500;-88
2021/11/13 08:42:11;;;;;;;21.60;19.50;;;6.70;99.90;;;;;;5060084;28;20825;-89
2021/11/13 08:44:40;;;;;;;20.43;18.30;;;6.60;99.90;;;;;;5057594;28;20479;-88
2021/11/13 08:47:09;;;;;;;20.83;18.63;;;6.50;99.90;;;;;;5063740;28;20432;-89
2021/11/13 08:49:37;;;;;;;20.97;18.80;;;6.30;99.90;;;;;;5070484;28;20512;-87
2021/11/13 08:52:04;;;;;;;19.60;17.60;;;6.20;99.90;;;;;;5072719;28;20548;-89
2021/11/13 08:54:31;;;;;;;20.50;18.50;;;6.10;99.90;;;;;;5053350;28;20448;-89
2021/11/13 08:56:59;;;;;;;20.60;18.60;;;6.10;99.90;;;;;;5071243;28;20431;-89
2021/11/13 08:59:26;;;;;;;22.23;19.83;;;6.10;99.90;;;;;;5057536;28;20440;-88
2021/11/13 09:01:53;;;;;;;20.93;18.93;;;6.00;99.90;;;;;;5058329;28;21023;-88
2021/11/13 09:04:19;;;;;;;19.57;17.63;;;6.00;99.90;;;;;;5058467;28;20479;-89
2021/11/13 09:06:46;;;;;;;19.43;17.33;;;6.00;99.90;;;;;;5058816;28;20447;-89
2021/11/13 09:09:13;;;;;;;20.67;17.53;;;6.00;99.90;;;;;;5071564;28;20432;-88
2021/11/13 09:11:43;;;;;;;21.07;18.67;;;6.00;99.90;;;;;;5069016;28;20456;-89
2021/11/13 09:14:15;;;;;;;19.03;17.03;;;6.00;99.90;;;;;;5076026;28;20455;-89
2021/11/13 09:16:42;;;;;;;20.03;18.10;;;6.00;99.90;;;;;;5074491;28;20424;-89
2021/11/13 09:19:10;;;;;;;19.40;17.40;;;6.10;99.90;;;;;;5063936;28;20949;-90
2021/11/13 09:21:37;;;;;;;20.73;18.37;;;6.10;99.90;;;;;;5064287;28;20531;-89
2021/11/13 09:24:08;;;;;;;19.63;17.63;;;6.20;99.90;;;;;;5063168;28;20472;-90
2021/11/13 09:26:35;;;;;;;20.63;18.47;;;6.40;99.90;;;;;;5059275;28;20471;-89
2021/11/13 09:29:01;;;;;;;19.63;17.63;;;6.50;99.90;;;;;;5060143;28;20475;-90
2021/11/13 09:31:30;;;;;;;19.23;17.43;;;6.70;99.90;;;;;;5064032;28;20452;-90
2021/11/13 09:33:57;;;;;;;19.43;17.50;;;6.80;99.90;;;;;;5061991;28;20437;-90
2021/11/13 09:36:24;;;;;;;20.70;18.50;;;6.90;99.90;;;;;;5059642;28;20454;-90
2021/11/13 09:38:54;;;;;;;18.67;16.77;;;7.20;99.90;;;;;;5061885;28;20498;-89
2021/11/13 09:41:21;;;;;;;17.87;16.07;;;7.30;99.90;;;;;;5073720;28;20460;-88
2021/11/13 09:43:48;;;;;;;19.33;17.43;;;7.50;99.90;;;;;;5076021;28;20456;-87
2021/11/13 09:46:15;;;;;;;18.30;15.90;;;7.70;99.90;;;;;;5070619;28;20455;-88
2021/11/13 09:48:43;;;;;;;20.13;18.30;;;7.80;99.90;;;;;;5069063;28;20447;-89
2021/11/13 09:51:12;;;;;;;18.50;16.83;;;8.00;99.90;;;;;;5069692;28;20444;-88
2021/11/13 09:53:39;;;;;;;18.93;17.00;;;8.10;99.90;;;;;;5062230;28;20490;-87
2021/11/13 09:56:07;;;;;;;17.57;15.87;;;8.30;99.90;;;;;;5057886;28;20539;-88
2021/11/13 09:58:34;;;;;;;16.90;15.20;;;8.40;99.90;;;;;;5056190;28;20440;-87
2021/11/13 10:01:01;;;;;;;19.70;17.87;;;8.60;99.90;;;;;;5057200;28;20444;-88
2021/11/13 10:03:28;;;;;;;18.50;16.70;;;8.50;99.90;;;;;;5069105;28;20471;-88
2021/11/13 10:06:01;;;;;;;18.47;16.73;;;8.50;99.90;;;;;;5069218;28;20425;-87
2021/11/13 10:08:28;;;;;;;18.87;16.90;;;8.60;99.90;;;;;;5071060;28;20445;-87
2021/11/13 10:10:57;;;;;;;18.60;16.90;;;8.50;99.90;;;;;;5068286;28;20445;-87
2021/11/13 10:13:28;;;;;;;20.03;17.97;;;8.40;99.90;;;;;;5068391;28;20860;-86
2021/11/13 10:15:57;;;;;;;19.20;17.50;;;8.10;99.90;;;;;;5071267;28;20440;-87
2021/11/13 10:18:27;;;;;;;21.07;18.90;;;7.90;99.90;;;;;;5067354;28;20516;-88
2021/11/13 10:21:06;;;;;;;19.50;17.70;;;7.80;99.90;;;;;;5065193;28;20448;-86
2021/11/13 10:23:37;;;;;;;19.93;17.90;;;7.70;99.90;;;;;;5075534;28;20470;-87
2021/11/13 10:26:07;;;;;;;27.33;19.50;;;7.70;99.90;;;;;;5068153;28;20444;-85
2021/11/13 10:28:42;;;;;;;20.67;18.57;;;7.80;99.90;;;;;;5058942;28;20451;-87
2021/11/13 10:31:14;;;;;;;21.00;18.80;;;7.80;99.90;;;;;;5055733;28;20444;-87
2021/11/13 10:33:41;;;;;;;20.03;18.03;;;7.80;99.90;;;;;;5056176;28;20445;-87
2021/11/13 10:36:10;;;;;;;19.37;17.57;;;7.80;99.90;;;;;;5074509;28;20429;-88
2021/11/13 10:38:38;;;;;;;21.10;18.90;;;7.80;99.90;;;;;;5068891;28;20441;-88
2021/11/13 10:41:07;;;;;;;22.17;19.97;;;7.80;99.90;;;;;;5072978;28;20431;-87
2021/11/13 10:43:36;;;;;;;21.47;19.27;;;7.90;99.90;;;;;;5069528;28;20843;-88
2021/11/13 10:46:05;;;;;;;21.30;19.00;;;7.90;99.90;;;;;;5067748;28;20456;-87
2021/11/13 10:48:35;;;;;;;21.67;19.47;;;7.90;99.90;;;;;;5061874;28;20466;-89
2021/11/13 10:51:05;;;;;;;21.00;18.80;;;8.00;99.90;;;;;;5055921;28;20440;-88
2021/11/13 10:53:35;;;;;;;23.43;20.93;;;8.10;99.90;;;;;;5055697;28;20436;-86
2021/11/13 10:56:05;;;;;;;19.90;17.87;;;8.20;99.90;;;;;;5056174;28;20444;-88
2021/11/13 10:58:34;;;;;;;21.83;19.63;;;8.40;99.90;;;;;;5052498;28;20449;-89
2021/11/13 11:01:03;;;;;;;19.87;17.87;;;8.50;99.90;;;;;;5052428;28;20508;-88
2021/11/13 11:03:30;;;;;;;21.70;19.53;;;8.50;99.90;;;;;;5055676;28;20487;-89
2021/11/13 11:05:57;;;;;;;21.23;19.00;;;8.60;99.90;;;;;;5054325;28;20490;-87
2021/11/13 11:08:28;;;;;;;20.77;18.57;;;8.70;99.90;;;;;;5054151;28;20444;-88
2021/11/13 11:10:57;;;;;;;21.50;19.30;;;8.70;99.90;;;;;;5053589;28;20804;-88
2021/11/13 11:13:43;;;;;;;21.37;19.27;;;8.80;99.90;;;;;;5053997;28;20451;-88
2021/11/13 11:16:33;;;;;;;23.40;21.07;;;8.70;99.90;;;;;;5051847;28;20444;-88
2021/11/13 11:19:05;;;;;;;22.60;20.50;;;8.70;99.90;;;;;;5055836;28;20448;-88
2021/11/13 11:21:54;;;;;;;21.97;19.67;;;8.80;99.90;;;;;;5067257;28;20456;-88
2021/11/13 11:24:27;;;;;;;23.70;21.33;;;8.80;99.90;;;;;;5057980;28;20476;-89
2021/11/13 11:26:59;;;;;;;21.47;19.33;;;8.80;99.90;;;;;;5052705;28;21039;-88
2021/11/13 11:29:27;;;;;;;21.10;19.07;;;8.80;99.90;;;;;;5053395;28;20463;-88
2021/11/13 11:31:59;;;;;;;23.30;21.20;;;8.90;99.90;;;;;;5053370;28;20464;-88
2021/11/13 11:34:33;;;;;;;23.67;20.83;;;8.90;99.90;;;;;;5053412;28;20436;-88
2021/11/13 11:37:06;;;;;;;22.30;20.03;;;9.00;99.90;;;;;;5053323;28;20440;-89
2021/11/13 11:39:33;;;;;;;21.93;19.77;;;9.00;99.90;;;;;;5052777;28;20449;-88
2021/11/13 11:42:02;;;;;;;24.73;22.03;;;9.00;99.90;;;;;;5053657;28;20968;-88
2021/11/13 11:44:29;;;;;;;25.20;20.30;;;9.00;99.90;;;;;;5053513;28;20530;-88
2021/11/13 11:46:56;;;;;;;23.90;21.27;;;9.00;99.90;;;;;;5056501;28;20464;-88
2021/11/13 11:49:24;;;;;;;23.27;20.90;;;8.90;99.90;;;;;;5053315;28;20455;-88
2021/11/13 11:51:51;;;;;;;23.97;21.60;;;8.90;99.90;;;;;;5064621;28;20445;-87
2021/11/13 11:54:18;;;;;;;22.90;20.60;;;9.00;99.90;;;;;;5056679;28;20468;-90
2021/11/13 11:56:45;;;;;;;23.40;21.20;;;8.90;99.90;;;;;;5053950;28;20528;-87
2021/11/13 11:59:14;;;;;;;22.03;19.90;;;8.90;99.90;;;;;;5052880;28;20448;-88
2021/11/13 12:01:43;;;;;;;26.90;21.60;;;8.90;99.90;;;;;;5053351;28;20491;-88
2021/11/13 12:04:12;;;;;;;22.50;20.40;;;8.90;99.90;;;;;;5057820;28;20483;-88
2021/11/13 12:06:40;;;;;;;23.27;20.87;;;8.80;99.90;;;;;;5060950;28;20436;-87
2021/11/13 12:09:07;;;;;;;22.67;20.47;;;8.80;99.90;;;;;;5060109;28;20518;-84
2021/11/13 12:11:36;;;;;;;23.40;20.80;;;8.90;99.90;;;;;;5054928;28;20988;-88
2021/11/13 12:14:34;;;;;;;21.70;19.53;;;8.90;99.90;;;;;;5064664;28;20424;-88
2021/11/13 12:17:27;;;;;;;23.97;21.70;;;8.90;99.90;;;;;;5067455;28;20432;-86
2021/11/13 12:20:37;;;;;;;22.43;20.23;;;8.90;99.90;;;;;;5068143;28;20471;-88
2021/11/13 12:23:10;;;;;;;22.50;20.10;;;8.80;99.90;;;;;;5050639;28;20467;-85
2021/11/13 12:25:40;;;;;;;23.40;21.00;;;8.80;99.90;;;;;;5071017;28;20538;-87
2021/11/13 12:28:14;;;;;;;22.93;20.80;;;8.70;99.90;;;;;;5063361;28;20881;-88
2021/11/13 12:31:01;;;;;;;22.30;20.07;;;8.60;99.90;;;;;;5056794;28;20446;-88
2021/11/13 12:34:13;;;;;;;23.43;21.10;;;8.70;99.90;;;;;;5040275;28;20452;-87
2021/11/13 12:36:57;;;;;;;20.93;18.73;;;8.90;99.90;;;;;;5052468;28;20471;-87
2021/11/13 12:39:24;;;;;;;21.57;19.37;;;9.00;99.90;;;;;;5058238;28;20855;-87
2021/11/13 12:41:58;;;;;;;24.50;22.00;;;9.00;99.90;;;;;;5055850;28;20990;-88